createdAt,value
2019-06-20T00:01:14.787Z,58.33
2019-06-20T00:04:05.596Z,58.43
2019-06-20T00:06:55.878Z,58.51
2019-06-20T00:09:47.380Z,58.70
2019-06-20T00:12:37.448Z,58.77
2019-06-20T00:15:31.480Z,58.77
2019-06-20T00:18:22.660Z,58.78
2019-06-20T00:21:12.328Z,58.76
2019-06-20T00:24:04.237Z,58.99
2019-06-20T00:26:54.416Z,58.99
2019-06-20T00:29:45.246Z,59.19
2019-06-20T00:32:35.063Z,58.96
2019-06-20T00:35:24.220Z,59.15
2019-06-20T00:38:31.927Z,59.14
2019-06-20T00:41:21.298Z,59.21
2019-06-20T00:44:11.333Z,59.17
2019-06-20T00:47:02.194Z,59.11
2019-06-20T00:49:53.197Z,59.29
2019-06-20T00:52:43.000Z,59.27
2019-06-20T00:55:32.668Z,59.32
2019-06-20T00:58:22.720Z,59.57
2019-06-20T01:01:13.082Z,59.65
2019-06-20T01:04:03.659Z,59.52
2019-06-20T01:06:56.569Z,59.97
2019-06-20T01:09:47.896Z,60.17
2019-06-20T01:12:37.089Z,60.07
2019-06-20T01:15:26.964Z,60.12
2019-06-20T01:18:18.275Z,60.26
2019-06-20T01:21:08.355Z,60.18
2019-06-20T01:23:57.273Z,60.20
2019-06-20T01:26:46.837Z,60.09
2019-06-20T01:29:38.101Z,60.06
2019-06-20T01:32:28.498Z,60.10
2019-06-20T01:35:18.002Z,60.11
2019-06-20T01:38:06.643Z,60.19
2019-06-20T01:40:56.600Z,60.31
2019-06-20T01:43:50.577Z,60.17
2019-06-20T01:46:40.192Z,60.14
2019-06-20T01:49:29.735Z,60.14
2019-06-20T01:52:18.842Z,60.14
2019-06-20T01:55:07.566Z,60.20
2019-06-20T01:57:56.167Z,60.45
2019-06-20T02:00:51.662Z,60.60
2019-06-20T02:03:42.654Z,60.83
2019-06-20T02:06:31.665Z,60.73
2019-06-20T02:09:21.429Z,60.67
2019-06-20T02:12:10.846Z,60.66
2019-06-20T02:14:59.980Z,60.66
2019-06-20T02:17:48.995Z,60.75
2019-06-20T02:20:40.760Z,60.75
2019-06-20T02:23:29.603Z,60.66
2019-06-20T02:26:18.626Z,60.64
2019-06-20T02:29:08.379Z,60.65
2019-06-20T02:31:57.542Z,60.73
2019-06-20T02:34:46.678Z,60.79
2019-06-20T02:37:36.385Z,60.69
2019-06-20T02:40:26.121Z,60.61
2019-06-20T02:43:15.524Z,60.72
2019-06-20T02:46:04.970Z,60.90
2019-06-20T02:48:57.030Z,60.75
2019-06-20T02:51:46.504Z,60.78
2019-06-20T02:54:38.900Z,60.79
2019-06-20T02:57:29.723Z,60.76
2019-06-20T03:00:39.020Z,60.80
2019-06-20T03:03:28.888Z,60.88
2019-06-20T03:06:18.860Z,60.75
2019-06-20T03:09:08.185Z,60.75
2019-06-20T03:11:57.848Z,60.72
2019-06-20T03:14:46.525Z,60.64
2019-06-20T03:17:35.841Z,60.71
2019-06-20T03:20:27.330Z,60.70
2019-06-20T03:23:16.531Z,60.63
2019-06-20T03:26:06.292Z,60.65
2019-06-20T03:28:57.382Z,60.76
2019-06-20T03:31:47.673Z,60.74
2019-06-20T03:34:37.322Z,60.80
2019-06-20T03:37:29.112Z,60.75
2019-06-20T03:40:19.395Z,60.78
2019-06-20T03:43:08.297Z,60.83
2019-06-20T03:45:56.879Z,60.97
2019-06-20T03:48:46.608Z,61.05
2019-06-20T03:51:40.233Z,61.01
2019-06-20T03:54:29.987Z,60.95
2019-06-20T03:57:19.351Z,60.97
2019-06-20T04:00:08.855Z,60.98
2019-06-20T04:03:01.096Z,61.06
2019-06-20T04:05:51.375Z,60.94
2019-06-20T04:08:43.430Z,60.90
2019-06-20T04:11:34.136Z,60.88
2019-06-20T04:14:26.936Z,60.83
2019-06-20T04:17:17.450Z,60.91
2019-06-20T04:20:07.206Z,60.91
2019-06-20T04:22:56.530Z,60.92
2019-06-20T04:25:46.583Z,60.90
2019-06-20T04:28:36.656Z,60.91
2019-06-20T04:31:28.808Z,60.86
2019-06-20T04:34:17.909Z,60.94
2019-06-20T04:37:08.693Z,60.88
2019-06-20T04:39:57.950Z,60.93
2019-06-20T04:42:47.733Z,61.09
2019-06-20T04:46:02.429Z,61.01
2019-06-20T04:48:52.467Z,61.05
2019-06-20T04:51:45.128Z,61.28
2019-06-20T04:54:36.157Z,61.25
2019-06-20T04:57:27.768Z,61.18
2019-06-20T05:00:19.178Z,61.25
2019-06-20T05:03:09.477Z,61.35
2019-06-20T05:05:59.226Z,61.39
2019-06-20T05:08:50.706Z,61.35
2019-06-20T05:11:40.244Z,61.33
2019-06-20T05:14:30.872Z,61.31
2019-06-20T05:17:23.574Z,61.25
2019-06-20T05:20:15.142Z,61.19
2019-06-20T05:23:05.071Z,61.23
2019-06-20T05:25:55.263Z,61.14
2019-06-20T05:28:46.836Z,61.14
2019-06-20T05:31:37.490Z,61.26
2019-06-20T05:34:26.737Z,61.30
2019-06-20T05:37:17.879Z,61.27
2019-06-20T05:40:10.478Z,61.29
2019-06-20T05:42:59.094Z,61.29
2019-06-20T05:45:49.661Z,61.44
2019-06-20T05:48:40.035Z,61.45
2019-06-20T05:51:29.887Z,61.41
2019-06-20T05:54:19.682Z,61.47
2019-06-20T05:57:11.366Z,61.34
2019-06-20T06:00:01.802Z,61.36
2019-06-20T06:02:53.625Z,61.27
2019-06-20T06:05:45.252Z,61.34
2019-06-20T06:08:36.190Z,61.21
2019-06-20T06:11:25.835Z,61.41
2019-06-20T06:14:17.320Z,63.92
2019-06-20T06:17:06.347Z,62.89
2019-06-20T06:20:16.751Z,62.64
2019-06-20T06:23:06.985Z,62.98
2019-06-20T06:25:57.866Z,64.05
2019-06-20T06:28:53.696Z,63.37
2019-06-20T06:31:44.314Z,63.00
2019-06-20T06:34:41.374Z,62.75
2019-06-20T06:37:36.405Z,62.55
2019-06-20T06:40:29.336Z,62.19
2019-06-20T06:43:19.610Z,62.18
2019-06-20T06:46:13.015Z,61.98
2019-06-20T06:49:04.232Z,62.02
2019-06-20T06:51:56.247Z,62.17
2019-06-20T06:54:48.764Z,61.78
2019-06-20T06:57:43.795Z,62.15
2019-06-20T07:00:33.196Z,62.11
2019-06-20T07:03:27.491Z,62.49
2019-06-20T07:06:16.870Z,62.59
2019-06-20T07:09:08.253Z,62.64
2019-06-20T07:12:00.915Z,62.57
2019-06-20T07:14:49.916Z,62.51
2019-06-20T07:17:39.606Z,62.48
2019-06-20T07:20:32.984Z,62.57
2019-06-20T07:23:26.467Z,62.58
2019-06-20T07:26:16.082Z,62.83
2019-06-20T07:29:08.460Z,63.16
2019-06-20T07:32:04.983Z,63.13
2019-06-20T07:34:54.694Z,63.21
2019-06-20T07:37:48.789Z,63.09
2019-06-20T07:40:48.792Z,62.92
2019-06-20T07:43:42.773Z,62.92
2019-06-20T07:46:34.097Z,62.77
2019-06-20T07:49:24.680Z,62.62
2019-06-20T07:52:16.194Z,62.47
2019-06-20T07:55:06.130Z,62.56
2019-06-20T07:57:56.246Z,62.44
2019-06-20T08:00:46.996Z,62.37
2019-06-20T08:03:37.663Z,62.38
2019-06-20T08:06:30.228Z,62.81
2019-06-20T08:09:24.244Z,63.38
2019-06-20T08:12:13.654Z,64.35
2019-06-20T08:15:14.544Z,64.18
2019-06-20T08:17:56.142Z,64.38
2019-06-20T08:20:46.560Z,64.72
2019-06-20T08:23:36.431Z,64.78
2019-06-20T08:26:27.601Z,64.92
2019-06-20T08:29:21.389Z,64.89
2019-06-20T08:32:12.260Z,64.84
2019-06-20T08:35:02.524Z,64.91
2019-06-20T08:37:52.915Z,65.10
2019-06-20T08:40:42.161Z,65.12
2019-06-20T08:43:32.207Z,64.96
2019-06-20T08:46:21.711Z,64.68
2019-06-20T08:49:10.960Z,64.47
2019-06-20T08:52:01.240Z,64.16
2019-06-20T08:54:50.761Z,63.87
2019-06-20T08:57:39.350Z,64.01
2019-06-20T09:00:29.796Z,63.91
2019-06-20T09:03:19.290Z,63.75
2019-06-20T09:06:08.438Z,63.44
2019-06-20T09:09:00.090Z,63.54
2019-06-20T09:11:50.049Z,63.56
2019-06-20T09:14:39.710Z,63.57
2019-06-20T09:17:28.931Z,63.18
2019-06-20T09:20:18.712Z,62.92
2019-06-20T09:23:08.349Z,62.67
2019-06-20T09:25:57.945Z,62.26
2019-06-20T09:28:47.020Z,62.09
2019-06-20T09:31:35.999Z,62.02
2019-06-20T09:34:24.622Z,62.07
2019-06-20T09:37:15.803Z,62.43
2019-06-20T09:40:05.778Z,62.08
2019-06-20T09:42:54.557Z,61.87
2019-06-20T09:45:43.139Z,61.66
2019-06-20T09:48:36.798Z,61.50
2019-06-20T09:51:25.456Z,61.38
2019-06-20T09:54:15.746Z,60.58
2019-06-20T09:57:04.937Z,60.20
2019-06-20T10:00:05.885Z,60.08
2019-06-20T10:02:47.149Z,60.06
2019-06-20T10:05:37.106Z,59.55
2019-06-20T10:08:26.633Z,59.58
2019-06-20T10:11:15.736Z,59.35
2019-06-20T10:14:05.484Z,59.09
2019-06-20T10:16:55.706Z,59.16
2019-06-20T10:19:47.273Z,58.97
2019-06-20T10:22:37.749Z,58.57
2019-06-20T10:25:26.687Z,57.97
2019-06-20T10:28:16.163Z,58.15
2019-06-20T10:31:05.553Z,57.32
2019-06-20T10:33:54.609Z,57.27
2019-06-20T10:36:44.834Z,56.37
2019-06-20T10:39:34.847Z,56.34
2019-06-20T10:42:25.215Z,56.25
2019-06-20T10:45:16.278Z,56.19
2019-06-20T10:48:05.773Z,56.04
2019-06-20T10:50:56.749Z,55.83
2019-06-20T10:53:47.118Z,55.24
2019-06-20T10:56:37.956Z,55.18
2019-06-20T10:59:27.344Z,54.44
2019-06-20T11:02:15.992Z,54.19
2019-06-20T11:05:06.886Z,54.15
2019-06-20T11:07:55.563Z,54.13
2019-06-20T11:10:45.102Z,53.80
2019-06-20T11:13:34.198Z,52.94
2019-06-20T11:16:23.877Z,53.17
2019-06-20T11:19:12.718Z,52.81
2019-06-20T11:22:02.000Z,52.55
2019-06-20T11:24:52.261Z,52.26
2019-06-20T11:27:40.878Z,52.01
2019-06-20T11:30:44.994Z,52.15
2019-06-20T11:33:23.878Z,51.18
2019-06-20T11:36:13.553Z,51.42
2019-06-20T11:39:03.519Z,51.28
2019-06-20T11:41:52.634Z,50.72
2019-06-20T11:44:41.235Z,51.10
2019-06-20T11:47:30.559Z,51.24
2019-06-20T11:50:21.272Z,50.89
2019-06-20T11:53:10.965Z,50.43
2019-06-20T11:56:00.497Z,50.21
2019-06-20T11:58:50.515Z,49.84
2019-06-20T12:01:40.083Z,48.89
2019-06-20T12:04:30.627Z,48.19
2019-06-20T12:07:20.132Z,47.76
2019-06-20T12:10:09.300Z,47.43
2019-06-20T12:12:59.165Z,47.46
2019-06-20T12:15:49.015Z,46.98
2019-06-20T12:18:43.117Z,46.19
2019-06-20T12:21:33.293Z,46.46
2019-06-20T12:24:23.393Z,46.37
2019-06-20T12:27:15.323Z,46.38
2019-06-20T12:30:06.445Z,47.12
2019-06-20T12:32:55.605Z,46.26
2019-06-20T12:35:44.603Z,45.84
2019-06-20T12:38:35.777Z,46.51
2019-06-20T12:41:26.162Z,46.48
2019-06-20T12:44:15.336Z,46.08
2019-06-20T12:47:04.598Z,46.88
2019-06-20T12:49:55.227Z,46.31
2019-06-20T12:52:47.530Z,45.99
2019-06-20T12:55:40.351Z,45.59
2019-06-20T12:58:30.270Z,45.27
2019-06-20T13:01:34.782Z,44.81
2019-06-20T13:04:12.197Z,44.96
2019-06-20T13:07:01.186Z,45.27
2019-06-20T13:09:50.469Z,44.92
2019-06-20T13:12:44.262Z,44.58
2019-06-20T13:15:34.187Z,44.65
2019-06-20T13:18:24.545Z,44.17
2019-06-20T13:21:15.290Z,44.74
2019-06-20T13:24:05.017Z,44.12
2019-06-20T13:26:57.564Z,44.33
2019-06-20T13:29:49.482Z,44.05
2019-06-20T13:32:41.650Z,43.85
2019-06-20T13:35:32.738Z,43.79
2019-06-20T13:38:22.318Z,43.50
2019-06-20T13:41:12.734Z,41.67
2019-06-20T13:44:03.955Z,41.61
2019-06-20T13:46:53.438Z,42.15
2019-06-20T13:49:43.260Z,42.47
2019-06-20T13:52:34.143Z,42.25
2019-06-20T13:55:26.945Z,42.24
2019-06-20T13:58:17.829Z,42.00
2019-06-20T14:01:08.309Z,42.02
2019-06-20T14:03:58.238Z,41.17
2019-06-20T14:06:47.693Z,40.69
2019-06-20T14:09:36.853Z,40.61
2019-06-20T14:12:26.543Z,40.48
2019-06-20T14:15:17.741Z,40.42
2019-06-20T14:18:07.574Z,40.13
2019-06-20T14:20:58.174Z,40.05
2019-06-20T14:23:49.850Z,40.14
2019-06-20T14:26:44.776Z,39.95
2019-06-20T14:29:34.030Z,39.58
2019-06-20T14:32:25.060Z,39.24
2019-06-20T14:35:18.554Z,38.86
2019-06-20T14:38:09.380Z,38.87
2019-06-20T14:40:59.044Z,38.82
2019-06-20T14:43:49.454Z,38.86
2019-06-20T14:46:39.288Z,38.71
2019-06-20T14:49:28.402Z,38.91
2019-06-20T14:52:17.945Z,38.66
2019-06-20T14:55:08.075Z,38.60
2019-06-20T14:57:57.786Z,38.37
2019-06-20T15:00:48.180Z,38.40
2019-06-20T15:03:39.964Z,38.29
2019-06-20T15:06:28.666Z,38.32
2019-06-20T15:09:19.434Z,38.38
2019-06-20T15:12:08.555Z,38.22
2019-06-20T15:14:57.556Z,38.17
2019-06-20T15:17:50.280Z,37.62
2019-06-20T15:20:39.204Z,37.27
2019-06-20T15:23:27.867Z,37.45
2019-06-20T15:26:17.395Z,37.15
2019-06-20T15:29:08.042Z,37.06
2019-06-20T15:31:57.491Z,37.06
2019-06-20T15:34:49.423Z,37.05
2019-06-20T15:37:38.883Z,36.97
2019-06-20T15:40:28.753Z,36.65
2019-06-20T15:43:18.859Z,36.97
2019-06-20T15:46:08.308Z,36.80
2019-06-20T15:48:59.932Z,36.85
2019-06-20T15:51:48.714Z,37.10
2019-06-20T15:54:42.368Z,36.92
2019-06-20T15:57:31.583Z,36.83
2019-06-20T16:00:20.737Z,36.79
2019-06-20T16:03:12.329Z,36.19
2019-06-20T16:06:01.220Z,36.73
2019-06-20T16:08:50.740Z,36.56
2019-06-20T16:11:40.357Z,36.44
2019-06-20T16:14:30.744Z,36.10
2019-06-20T16:17:20.738Z,35.66
2019-06-20T16:20:09.754Z,35.15
2019-06-20T16:23:02.144Z,35.20
2019-06-20T16:25:52.475Z,35.21
2019-06-20T16:28:41.922Z,35.33
2019-06-20T16:31:34.945Z,34.83
2019-06-20T16:34:25.618Z,34.42
2019-06-20T16:37:15.683Z,34.26
2019-06-20T16:40:05.295Z,34.44
2019-06-20T16:42:55.520Z,34.89
2019-06-20T16:45:44.494Z,34.30
2019-06-20T16:48:34.102Z,34.19
2019-06-20T16:51:27.369Z,34.44
2019-06-20T16:54:18.085Z,34.82
2019-06-20T16:57:07.252Z,34.55
2019-06-20T16:59:56.579Z,34.58
2019-06-20T17:02:46.663Z,33.47
2019-06-20T17:05:36.173Z,33.35
2019-06-20T17:08:26.491Z,33.75
2019-06-20T17:11:17.568Z,34.55
2019-06-20T17:14:07.904Z,34.65
2019-06-20T17:16:58.369Z,34.74
2019-06-20T17:19:50.428Z,35.10
2019-06-20T17:22:39.680Z,35.33
2019-06-20T17:25:29.213Z,35.65
2019-06-20T17:28:20.922Z,36.00
2019-06-20T17:31:09.971Z,36.12
2019-06-20T17:34:00.337Z,36.64
2019-06-20T17:36:49.603Z,36.80
2019-06-20T17:39:38.365Z,36.94
2019-06-20T17:42:28.254Z,37.30
2019-06-20T17:45:17.635Z,37.38
2019-06-20T17:48:06.873Z,37.62
2019-06-20T17:50:56.278Z,38.00
2019-06-20T17:53:45.672Z,38.15
2019-06-20T17:56:34.986Z,38.39
2019-06-20T17:59:27.480Z,38.78
2019-06-20T18:02:17.611Z,38.99
2019-06-20T18:05:08.569Z,39.34
2019-06-20T18:07:57.847Z,39.65
2019-06-20T18:10:48.636Z,39.82
2019-06-20T18:13:38.801Z,40.00
2019-06-20T18:16:29.306Z,40.20
2019-06-20T18:19:19.772Z,40.43
2019-06-20T18:22:09.355Z,40.55
2019-06-20T18:24:58.935Z,40.26
2019-06-20T18:27:48.512Z,40.35
2019-06-20T18:30:43.034Z,40.78
2019-06-20T18:33:32.736Z,40.78
2019-06-20T18:36:22.176Z,41.03
2019-06-20T18:39:14.197Z,40.98
2019-06-20T18:42:04.641Z,41.25
2019-06-20T18:44:54.457Z,41.43
2019-06-20T18:47:44.763Z,41.45
2019-06-20T18:50:34.131Z,41.58
2019-06-20T18:53:23.695Z,41.72
2019-06-20T18:56:13.166Z,41.93
2019-06-20T18:59:02.516Z,41.64
2019-06-20T19:01:51.485Z,41.88
2019-06-20T19:04:48.032Z,42.10
2019-06-20T19:07:32.269Z,42.05
2019-06-20T19:10:23.824Z,42.39
2019-06-20T19:13:13.632Z,42.32
2019-06-20T19:16:03.709Z,42.33
2019-06-20T19:18:53.199Z,42.43
2019-06-20T19:21:48.341Z,42.77
2019-06-20T19:24:39.587Z,42.84
2019-06-20T19:27:45.111Z,42.99
2019-06-20T19:30:22.078Z,43.12
2019-06-20T19:33:11.382Z,43.41
2019-06-20T19:36:00.775Z,43.45
2019-06-20T19:38:50.378Z,43.68
2019-06-20T19:41:42.231Z,43.92
2019-06-20T19:44:34.167Z,44.09
2019-06-20T19:47:42.235Z,44.19
2019-06-20T19:50:31.877Z,44.43
2019-06-20T19:53:23.443Z,44.55
2019-06-20T19:56:15.576Z,44.70
2019-06-20T19:59:05.904Z,44.85
2019-06-20T20:01:56.477Z,44.91
2019-06-20T20:04:45.772Z,45.13
2019-06-20T20:07:35.333Z,45.18
2019-06-20T20:10:42.879Z,45.29
2019-06-20T20:13:34.474Z,45.47
2019-06-20T20:16:27.085Z,45.56
2019-06-20T20:19:17.103Z,45.71
2019-06-20T20:22:11.125Z,45.85
2019-06-20T20:25:02.344Z,45.88
2019-06-20T20:27:54.601Z,45.90
2019-06-20T20:30:47.611Z,46.07
2019-06-20T20:33:37.207Z,46.18
2019-06-20T20:36:26.620Z,46.32
2019-06-20T20:39:17.030Z,46.38
2019-06-20T20:42:07.420Z,46.54
2019-06-20T20:45:00.636Z,46.54
2019-06-20T20:47:56.469Z,46.68
2019-06-20T20:50:46.021Z,46.79
2019-06-20T20:53:34.879Z,46.94
2019-06-20T20:56:25.242Z,46.95
2019-06-20T20:59:15.097Z,47.18
2019-06-20T21:02:04.721Z,47.24
2019-06-20T21:04:56.461Z,47.25
2019-06-20T21:07:45.484Z,47.36
2019-06-20T21:10:34.863Z,47.55
2019-06-20T21:13:26.330Z,47.69
2019-06-20T21:16:15.898Z,47.69
2019-06-20T21:19:07.346Z,47.80
2019-06-20T21:21:57.084Z,47.86
2019-06-20T21:24:46.248Z,48.04
2019-06-20T21:27:36.321Z,48.08
2019-06-20T21:30:28.260Z,48.14
2019-06-20T21:33:20.406Z,48.31
2019-06-20T21:36:13.523Z,48.40
2019-06-20T21:39:03.801Z,48.50
2019-06-20T21:41:52.771Z,48.65
2019-06-20T21:44:42.367Z,48.60
2019-06-20T21:47:36.869Z,48.65
2019-06-20T21:50:25.753Z,48.83
2019-06-20T21:53:15.016Z,48.89
2019-06-20T21:56:04.620Z,49.02
2019-06-20T21:58:55.299Z,49.07
2019-06-20T22:01:48.605Z,49.14
2019-06-20T22:04:54.046Z,49.26
2019-06-20T22:07:35.668Z,49.37
2019-06-20T22:10:25.920Z,49.42
2019-06-20T22:13:16.687Z,49.48
2019-06-20T22:16:05.695Z,49.64
2019-06-20T22:18:55.524Z,49.70
2019-06-20T22:21:44.923Z,49.78
2019-06-20T22:24:37.316Z,49.88
2019-06-20T22:27:29.461Z,49.92
2019-06-20T22:30:41.069Z,50.02
2019-06-20T22:33:30.172Z,50.08
2019-06-20T22:36:39.285Z,50.18
2019-06-20T22:39:17.294Z,50.24
2019-06-20T22:42:10.463Z,50.30
2019-06-20T22:44:59.853Z,50.37
2019-06-20T22:47:49.651Z,50.46
2019-06-20T22:50:38.657Z,50.49
2019-06-20T22:53:30.640Z,50.60
2019-06-20T22:56:20.067Z,50.64
2019-06-20T22:59:10.683Z,50.73
2019-06-20T23:02:00.301Z,50.81
2019-06-20T23:04:49.729Z,50.84
2019-06-20T23:07:39.185Z,50.89
2019-06-20T23:10:28.256Z,50.93
2019-06-20T23:13:18.205Z,51.05
2019-06-20T23:16:08.483Z,51.09
2019-06-20T23:18:58.006Z,51.13
2019-06-20T23:21:47.941Z,51.19
2019-06-20T23:24:39.640Z,51.24
2019-06-20T23:27:28.858Z,51.33
2019-06-20T23:30:17.941Z,51.41
2019-06-20T23:33:07.319Z,51.39
2019-06-20T23:35:56.399Z,51.50
2019-06-20T23:38:50.596Z,51.59
2019-06-20T23:41:40.455Z,51.68
2019-06-20T23:44:34.994Z,51.74
2019-06-20T23:47:24.392Z,51.78
2019-06-20T23:50:21.356Z,51.73
2019-06-20T23:53:22.349Z,51.84
2019-06-20T23:56:11.732Z,51.92
2019-06-20T23:59:01.800Z,51.99
